sensor_id;sensor_type;location;lat;lon;timestamp;P1;durP1;ratioP1;P2;durP2;ratioP2
36855;SDS011;22788;51.434;6.786;2022-11-20T00:00:44;15.07;;;9.37;;
36855;SDS011;22788;51.434;6.786;2022-11-20T00:03:10;12.40;;;8.63;;
36855;SDS011;22788;51.434;6.786;2022-11-20T00:05:36;12.87;;;9.30;;
36855;SDS011;22788;51.434;6.786;2022-11-20T00:08:02;13.40;;;8.53;;
36855;SDS011;22788;51.434;6.786;2022-11-20T00:10:28;17.37;;;10.00;;
36855;SDS011;22788;51.434;6.786;2022-11-20T00:12:55;13.20;;;8.83;;
36855;SDS011;22788;51.434;6.786;2022-11-20T00:15:22;13.97;;;8.90;;
36855;SDS011;22788;51.434;6.786;2022-11-20T00:17:48;12.13;;;9.57;;
36855;SDS011;22788;51.434;6.786;2022-11-20T00:20:14;12.67;;;8.70;;
36855;SDS011;22788;51.434;6.786;2022-11-20T00:22:40;14.53;;;9.37;;
36855;SDS011;22788;51.434;6.786;2022-11-20T00:25:06;13.47;;;8.20;;
36855;SDS011;22788;51.434;6.786;2022-11-20T00:27:33;14.37;;;9.17;;
36855;SDS011;22788;51.434;6.786;2022-11-20T00:29:59;13.80;;;9.27;;
36855;SDS011;22788;51.434;6.786;2022-11-20T00:32:26;14.73;;;9.83;;
36855;SDS011;22788;51.434;6.786;2022-11-20T00:34:52;15.67;;;9.30;;
36855;SDS011;22788;51.434;6.786;2022-11-20T00:37:18;11.37;;;8.97;;
36855;SDS011;22788;51.434;6.786;2022-11-20T00:39:44;15.23;;;9.53;;
36855;SDS011;22788;51.434;6.786;2022-11-20T00:42:10;11.77;;;8.23;;
36855;SDS011;22788;51.434;6.786;2022-11-20T00:44:36;14.13;;;9.27;;
36855;SDS011;22788;51.434;6.786;2022-11-20T00:47:02;12.77;;;8.73;;
36855;SDS011;22788;51.434;6.786;2022-11-20T00:49:29;14.27;;;9.40;;
36855;SDS011;22788;51.434;6.786;2022-11-20T00:51:56;14.53;;;9.20;;
36855;SDS011;22788;51.434;6.786;2022-11-20T00:54:22;11.73;;;9.27;;
36855;SDS011;22788;51.434;6.786;2022-11-20T00:56:48;16.10;;;10.20;;
36855;SDS011;22788;51.434;6.786;2022-11-20T00:59:14;15.10;;;9.80;;
36855;SDS011;22788;51.434;6.786;2022-11-20T01:01:40;12.40;;;8.60;;
36855;SDS011;22788;51.434;6.786;2022-11-20T01:04:06;12.97;;;8.43;;
36855;SDS011;22788;51.434;6.786;2022-11-20T01:06:34;14.87;;;9.23;;
36855;SDS011;22788;51.434;6.786;2022-11-20T01:09:02;13.07;;;8.93;;
36855;SDS011;22788;51.434;6.786;2022-11-20T01:11:30;14.10;;;9.27;;
36855;SDS011;22788;51.434;6.786;2022-11-20T01:13:59;13.90;;;8.60;;
36855;SDS011;22788;51.434;6.786;2022-11-20T01:16:26;11.73;;;8.77;;
36855;SDS011;22788;51.434;6.786;2022-11-20T01:18:55;16.33;;;9.43;;
36855;SDS011;22788;51.434;6.786;2022-11-20T01:21:24;14.70;;;8.97;;
36855;SDS011;22788;51.434;6.786;2022-11-20T01:23:52;14.70;;;8.87;;
36855;SDS011;22788;51.434;6.786;2022-11-20T01:26:19;14.87;;;9.73;;
36855;SDS011;22788;51.434;6.786;2022-11-20T01:28:47;14.33;;;9.53;;
36855;SDS011;22788;51.434;6.786;2022-11-20T01:31:14;15.70;;;9.67;;
36855;SDS011;22788;51.434;6.786;2022-11-20T01:33:41;13.23;;;9.13;;
36855;SDS011;22788;51.434;6.786;2022-11-20T01:36:08;13.63;;;9.03;;
36855;SDS011;22788;51.434;6.786;2022-11-20T01:38:36;13.47;;;9.30;;
36855;SDS011;22788;51.434;6.786;2022-11-20T01:41:04;12.33;;;8.80;;
36855;SDS011;22788;51.434;6.786;2022-11-20T01:43:31;13.23;;;9.27;;
36855;SDS011;22788;51.434;6.786;2022-11-20T01:46:12;14.37;;;9.07;;
36855;SDS011;22788;51.434;6.786;2022-11-20T01:48:42;14.33;;;8.90;;
36855;SDS011;22788;51.434;6.786;2022-11-20T01:51:17;14.17;;;10.13;;
36855;SDS011;22788;51.434;6.786;2022-11-20T01:53:48;11.93;;;9.30;;
36855;SDS011;22788;51.434;6.786;2022-11-20T01:56:16;11.97;;;9.23;;
36855;SDS011;22788;51.434;6.786;2022-11-20T01:58:45;16.73;;;9.30;;
36855;SDS011;22788;51.434;6.786;2022-11-20T02:01:13;16.13;;;9.20;;
36855;SDS011;22788;51.434;6.786;2022-11-20T02:03:39;12.53;;;8.23;;
36855;SDS011;22788;51.434;6.786;2022-11-20T02:06:08;16.53;;;10.03;;
36855;SDS011;22788;51.434;6.786;2022-11-20T02:08:38;12.13;;;9.33;;
36855;SDS011;22788;51.434;6.786;2022-11-20T02:11:04;14.23;;;9.37;;
36855;SDS011;22788;51.434;6.786;2022-11-20T02:13:31;15.20;;;10.00;;
36855;SDS011;22788;51.434;6.786;2022-11-20T02:15:59;13.40;;;9.07;;
36855;SDS011;22788;51.434;6.786;2022-11-20T02:18:25;13.77;;;9.33;;
36855;SDS011;22788;51.434;6.786;2022-11-20T02:20:53;12.93;;;9.70;;
36855;SDS011;22788;51.434;6.786;2022-11-20T02:23:26;14.57;;;9.80;;
36855;SDS011;22788;51.434;6.786;2022-11-20T02:25:59;13.70;;;9.90;;
36855;SDS011;22788;51.434;6.786;2022-11-20T02:28:27;15.37;;;9.33;;
36855;SDS011;22788;51.434;6.786;2022-11-20T02:30:53;14.83;;;9.67;;
36855;SDS011;22788;51.434;6.786;2022-11-20T02:33:19;14.60;;;9.50;;
36855;SDS011;22788;51.434;6.786;2022-11-20T02:35:46;14.57;;;9.57;;
36855;SDS011;22788;51.434;6.786;2022-11-20T02:38:12;14.07;;;10.10;;
36855;SDS011;22788;51.434;6.786;2022-11-20T02:40:39;15.13;;;9.50;;
36855;SDS011;22788;51.434;6.786;2022-11-20T02:43:06;14.03;;;9.30;;
36855;SDS011;22788;51.434;6.786;2022-11-20T02:45:33;12.73;;;9.40;;
36855;SDS011;22788;51.434;6.786;2022-11-20T02:47:59;13.63;;;9.43;;
36855;SDS011;22788;51.434;6.786;2022-11-20T02:50:25;14.63;;;10.07;;
36855;SDS011;22788;51.434;6.786;2022-11-20T02:52:51;15.27;;;9.60;;
36855;SDS011;22788;51.434;6.786;2022-11-20T02:55:18;14.17;;;9.53;;
36855;SDS011;22788;51.434;6.786;2022-11-20T02:57:44;15.10;;;10.00;;
36855;SDS011;22788;51.434;6.786;2022-11-20T03:00:12;14.87;;;9.97;;
36855;SDS011;22788;51.434;6.786;2022-11-20T03:02:39;12.53;;;9.00;;
36855;SDS011;22788;51.434;6.786;2022-11-20T03:05:05;13.60;;;9.60;;
36855;SDS011;22788;51.434;6.786;2022-11-20T03:07:31;15.27;;;9.83;;
36855;SDS011;22788;51.434;6.786;2022-11-20T03:09:57;14.10;;;9.20;;
36855;SDS011;22788;51.434;6.786;2022-11-20T03:12:23;16.07;;;10.00;;
36855;SDS011;22788;51.434;6.786;2022-11-20T03:14:49;12.97;;;9.43;;
36855;SDS011;22788;51.434;6.786;2022-11-20T03:17:17;12.53;;;8.93;;
36855;SDS011;22788;51.434;6.786;2022-11-20T03:19:43;14.97;;;10.23;;
36855;SDS011;22788;51.434;6.786;2022-11-20T03:22:09;13.30;;;9.17;;
36855;SDS011;22788;51.434;6.786;2022-11-20T03:24:35;13.87;;;9.37;;
36855;SDS011;22788;51.434;6.786;2022-11-20T03:27:01;15.23;;;9.77;;
36855;SDS011;22788;51.434;6.786;2022-11-20T03:29:27;15.57;;;9.70;;
36855;SDS011;22788;51.434;6.786;2022-11-20T03:31:53;13.00;;;9.43;;
36855;SDS011;22788;51.434;6.786;2022-11-20T03:34:20;13.33;;;8.93;;
36855;SDS011;22788;51.434;6.786;2022-11-20T03:36:46;16.20;;;10.77;;
36855;SDS011;22788;51.434;6.786;2022-11-20T03:39:12;19.63;;;9.70;;
36855;SDS011;22788;51.434;6.786;2022-11-20T03:41:39;13.10;;;9.63;;
36855;SDS011;22788;51.434;6.786;2022-11-20T03:44:07;12.73;;;9.33;;
36855;SDS011;22788;51.434;6.786;2022-11-20T03:46:34;11.90;;;8.93;;
36855;SDS011;22788;51.434;6.786;2022-11-20T03:49:00;14.83;;;9.23;;
36855;SDS011;22788;51.434;6.786;2022-11-20T03:51:28;13.80;;;9.53;;
36855;SDS011;22788;51.434;6.786;2022-11-20T03:53:56;16.83;;;9.77;;
36855;SDS011;22788;51.434;6.786;2022-11-20T03:56:25;14.00;;;9.70;;
36855;SDS011;22788;51.434;6.786;2022-11-20T03:58:52;13.70;;;9.70;;
36855;SDS011;22788;51.434;6.786;2022-11-20T04:01:19;13.97;;;9.60;;
36855;SDS011;22788;51.434;6.786;2022-11-20T04:03:47;13.70;;;9.53;;
36855;SDS011;22788;51.434;6.786;2022-11-20T04:06:14;13.77;;;9.23;;
36855;SDS011;22788;51.434;6.786;2022-11-20T04:08:43;15.90;;;9.70;;
36855;SDS011;22788;51.434;6.786;2022-11-20T04:11:10;16.00;;;9.07;;
36855;SDS011;22788;51.434;6.786;2022-11-20T04:13:37;13.77;;;9.07;;
36855;SDS011;22788;51.434;6.786;2022-11-20T04:16:04;15.00;;;9.53;;
36855;SDS011;22788;51.434;6.786;2022-11-20T04:18:30;12.77;;;9.17;;
36855;SDS011;22788;51.434;6.786;2022-11-20T04:20:57;14.70;;;9.20;;
36855;SDS011;22788;51.434;6.786;2022-11-20T04:23:23;12.77;;;9.47;;
36855;SDS011;22788;51.434;6.786;2022-11-20T04:25:50;14.40;;;9.10;;
36855;SDS011;22788;51.434;6.786;2022-11-20T04:28:16;15.13;;;10.00;;
36855;SDS011;22788;51.434;6.786;2022-11-20T04:30:43;16.80;;;10.67;;
36855;SDS011;22788;51.434;6.786;2022-11-20T04:33:09;13.50;;;9.10;;
36855;SDS011;22788;51.434;6.786;2022-11-20T04:35:35;12.80;;;9.97;;
36855;SDS011;22788;51.434;6.786;2022-11-20T04:38:02;13.67;;;9.83;;
36855;SDS011;22788;51.434;6.786;2022-11-20T04:40:29;15.47;;;9.60;;
36855;SDS011;22788;51.434;6.786;2022-11-20T04:42:56;13.37;;;9.13;;
36855;SDS011;22788;51.434;6.786;2022-11-20T04:45:23;13.37;;;9.27;;
36855;SDS011;22788;51.434;6.786;2022-11-20T04:47:49;15.30;;;9.87;;
36855;SDS011;22788;51.434;6.786;2022-11-20T04:50:15;14.50;;;9.33;;
36855;SDS011;22788;51.434;6.786;2022-11-20T04:52:41;15.27;;;9.20;;
36855;SDS011;22788;51.434;6.786;2022-11-20T04:55:07;12.20;;;9.13;;
36855;SDS011;22788;51.434;6.786;2022-11-20T04:57:33;14.83;;;9.80;;
36855;SDS011;22788;51.434;6.786;2022-11-20T05:00:01;11.97;;;8.93;;
36855;SDS011;22788;51.434;6.786;2022-11-20T05:02:27;13.37;;;9.60;;
36855;SDS011;22788;51.434;6.786;2022-11-20T05:04:53;12.20;;;9.07;;
36855;SDS011;22788;51.434;6.786;2022-11-20T05:07:19;13.23;;;9.23;;
36855;SDS011;22788;51.434;6.786;2022-11-20T05:09:45;17.17;;;9.63;;
36855;SDS011;22788;51.434;6.786;2022-11-20T05:12:11;13.83;;;9.77;;
36855;SDS011;22788;51.434;6.786;2022-11-20T05:14:37;15.30;;;9.57;;
36855;SDS011;22788;51.434;6.786;2022-11-20T05:17:04;14.10;;;9.60;;
36855;SDS011;22788;51.434;6.786;2022-11-20T05:19:30;14.00;;;9.57;;
36855;SDS011;22788;51.434;6.786;2022-11-20T05:21:56;13.03;;;9.67;;
36855;SDS011;22788;51.434;6.786;2022-11-20T05:24:22;13.37;;;9.07;;
36855;SDS011;22788;51.434;6.786;2022-11-20T05:26:48;11.87;;;9.27;;
36855;SDS011;22788;51.434;6.786;2022-11-20T05:29:14;13.87;;;9.47;;
36855;SDS011;22788;51.434;6.786;2022-11-20T05:31:40;13.10;;;9.40;;
36855;SDS011;22788;51.434;6.786;2022-11-20T05:34:08;13.50;;;9.03;;
36855;SDS011;22788;51.434;6.786;2022-11-20T05:36:34;14.23;;;8.80;;
36855;SDS011;22788;51.434;6.786;2022-11-20T05:39:00;13.67;;;9.20;;
36855;SDS011;22788;51.434;6.786;2022-11-20T05:41:26;12.67;;;9.43;;
36855;SDS011;22788;51.434;6.786;2022-11-20T05:43:52;12.33;;;8.93;;
36855;SDS011;22788;51.434;6.786;2022-11-20T05:46:18;12.20;;;9.03;;
36855;SDS011;22788;51.434;6.786;2022-11-20T05:48:46;13.63;;;9.90;;
36855;SDS011;22788;51.434;6.786;2022-11-20T05:51:14;14.93;;;9.93;;
36855;SDS011;22788;51.434;6.786;2022-11-20T05:53:42;13.67;;;8.93;;
36855;SDS011;22788;51.434;6.786;2022-11-20T05:56:09;13.53;;;9.63;;
36855;SDS011;22788;51.434;6.786;2022-11-20T05:58:37;12.57;;;8.67;;
36855;SDS011;22788;51.434;6.786;2022-11-20T06:01:04;14.80;;;10.03;;
36855;SDS011;22788;51.434;6.786;2022-11-20T06:03:31;15.80;;;10.47;;
36855;SDS011;22788;51.434;6.786;2022-11-20T06:05:58;16.90;;;9.97;;
36855;SDS011;22788;51.434;6.786;2022-11-20T06:08:25;14.87;;;10.53;;
36855;SDS011;22788;51.434;6.786;2022-11-20T06:10:51;15.63;;;10.37;;
36855;SDS011;22788;51.434;6.786;2022-11-20T06:13:18;16.23;;;10.47;;
36855;SDS011;22788;51.434;6.786;2022-11-20T06:15:47;15.93;;;10.17;;
36855;SDS011;22788;51.434;6.786;2022-11-20T06:18:14;15.03;;;9.80;;
36855;SDS011;22788;51.434;6.786;2022-11-20T06:20:40;16.13;;;10.20;;
36855;SDS011;22788;51.434;6.786;2022-11-20T06:23:06;14.50;;;10.20;;
36855;SDS011;22788;51.434;6.786;2022-11-20T06:25:33;13.00;;;10.03;;
36855;SDS011;22788;51.434;6.786;2022-11-20T06:28:03;17.07;;;11.03;;
36855;SDS011;22788;51.434;6.786;2022-11-20T06:30:29;14.23;;;9.57;;
36855;SDS011;22788;51.434;6.786;2022-11-20T06:32:55;15.90;;;10.07;;
36855;SDS011;22788;51.434;6.786;2022-11-20T06:35:21;16.83;;;10.40;;
36855;SDS011;22788;51.434;6.786;2022-11-20T06:37:47;13.93;;;10.47;;
36855;SDS011;22788;51.434;6.786;2022-11-20T06:40:13;17.30;;;11.60;;
36855;SDS011;22788;51.434;6.786;2022-11-20T06:42:45;15.27;;;9.80;;
36855;SDS011;22788;51.434;6.786;2022-11-20T06:45:14;17.13;;;11.10;;
36855;SDS011;22788;51.434;6.786;2022-11-20T06:47:40;14.67;;;10.07;;
36855;SDS011;22788;51.434;6.786;2022-11-20T06:50:06;16.30;;;10.23;;
36855;SDS011;22788;51.434;6.786;2022-11-20T06:52:33;15.00;;;10.50;;
36855;SDS011;22788;51.434;6.786;2022-11-20T06:54:59;13.67;;;10.10;;
36855;SDS011;22788;51.434;6.786;2022-11-20T06:57:25;14.27;;;10.23;;
36855;SDS011;22788;51.434;6.786;2022-11-20T06:59:52;18.87;;;10.47;;
36855;SDS011;22788;51.434;6.786;2022-11-20T07:02:18;16.10;;;10.37;;
36855;SDS011;22788;51.434;6.786;2022-11-20T07:04:44;16.23;;;10.83;;
36855;SDS011;22788;51.434;6.786;2022-11-20T07:07:10;15.50;;;10.50;;
36855;SDS011;22788;51.434;6.786;2022-11-20T07:09:36;16.93;;;10.87;;
36855;SDS011;22788;51.434;6.786;2022-11-20T07:12:02;15.03;;;10.33;;
36855;SDS011;22788;51.434;6.786;2022-11-20T07:14:29;16.37;;;10.07;;
36855;SDS011;22788;51.434;6.786;2022-11-20T07:16:56;16.57;;;10.20;;
36855;SDS011;22788;51.434;6.786;2022-11-20T07:19:22;17.47;;;10.63;;
36855;SDS011;22788;51.434;6.786;2022-11-20T07:21:48;13.77;;;9.53;;
36855;SDS011;22788;51.434;6.786;2022-11-20T07:24:14;15.47;;;10.80;;
36855;SDS011;22788;51.434;6.786;2022-11-20T07:26:40;18.47;;;11.60;;
36855;SDS011;22788;51.434;6.786;2022-11-20T07:29:06;14.50;;;9.97;;
36855;SDS011;22788;51.434;6.786;2022-11-20T07:31:32;12.50;;;9.47;;
36855;SDS011;22788;51.434;6.786;2022-11-20T07:34:00;13.70;;;10.17;;
36855;SDS011;22788;51.434;6.786;2022-11-20T07:36:26;16.03;;;10.60;;
36855;SDS011;22788;51.434;6.786;2022-11-20T07:38:52;15.73;;;10.47;;
36855;SDS011;22788;51.434;6.786;2022-11-20T07:41:18;15.17;;;10.47;;
36855;SDS011;22788;51.434;6.786;2022-11-20T07:43:44;15.73;;;10.60;;
36855;SDS011;22788;51.434;6.786;2022-11-20T07:46:10;15.57;;;10.60;;
36855;SDS011;22788;51.434;6.786;2022-11-20T07:48:36;19.90;;;11.33;;
36855;SDS011;22788;51.434;6.786;2022-11-20T07:51:03;18.60;;;10.70;;
36855;SDS011;22788;51.434;6.786;2022-11-20T07:53:29;13.77;;;9.97;;
36855;SDS011;22788;51.434;6.786;2022-11-20T07:55:58;16.20;;;10.43;;
36855;SDS011;22788;51.434;6.786;2022-11-20T07:58:25;14.03;;;10.67;;
36855;SDS011;22788;51.434;6.786;2022-11-20T08:00:51;16.37;;;10.13;;
36855;SDS011;22788;51.434;6.786;2022-11-20T08:03:17;15.70;;;9.97;;
36855;SDS011;22788;51.434;6.786;2022-11-20T08:05:43;16.47;;;10.13;;
36855;SDS011;22788;51.434;6.786;2022-11-20T08:08:10;18.47;;;11.17;;
36855;SDS011;22788;51.434;6.786;2022-11-20T08:10:36;15.10;;;10.00;;
36855;SDS011;22788;51.434;6.786;2022-11-20T08:13:02;17.90;;;10.77;;
36855;SDS011;22788;51.434;6.786;2022-11-20T08:15:28;16.10;;;9.53;;
36855;SDS011;22788;51.434;6.786;2022-11-20T08:17:58;15.50;;;9.83;;
36855;SDS011;22788;51.434;6.786;2022-11-20T08:20:25;16.70;;;10.40;;
36855;SDS011;22788;51.434;6.786;2022-11-20T08:22:51;14.57;;;9.70;;
36855;SDS011;22788;51.434;6.786;2022-11-20T08:25:19;13.93;;;9.67;;
36855;SDS011;22788;51.434;6.786;2022-11-20T08:27:45;13.67;;;9.47;;
36855;SDS011;22788;51.434;6.786;2022-11-20T08:30:11;16.37;;;10.27;;
36855;SDS011;22788;51.434;6.786;2022-11-20T08:32:38;14.87;;;9.70;;
36855;SDS011;22788;51.434;6.786;2022-11-20T08:35:04;13.87;;;10.27;;
36855;SDS011;22788;51.434;6.786;2022-11-20T08:37:30;14.63;;;9.90;;
36855;SDS011;22788;51.434;6.786;2022-11-20T08:39:56;13.20;;;9.87;;
36855;SDS011;22788;51.434;6.786;2022-11-20T08:42:24;14.23;;;10.23;;
36855;SDS011;22788;51.434;6.786;2022-11-20T08:44:50;13.97;;;9.53;;
36855;SDS011;22788;51.434;6.786;2022-11-20T08:47:16;15.23;;;10.30;;
36855;SDS011;22788;51.434;6.786;2022-11-20T08:49:42;16.57;;;10.30;;
36855;SDS011;22788;51.434;6.786;2022-11-20T08:52:08;13.80;;;9.77;;
36855;SDS011;22788;51.434;6.786;2022-11-20T08:54:34;14.90;;;9.80;;
36855;SDS011;22788;51.434;6.786;2022-11-20T08:57:00;13.93;;;9.90;;
36855;SDS011;22788;51.434;6.786;2022-11-20T08:59:27;13.17;;;9.73;;
36855;SDS011;22788;51.434;6.786;2022-11-20T09:01:53;13.57;;;9.00;;
36855;SDS011;22788;51.434;6.786;2022-11-20T09:04:19;19.43;;;10.30;;
36855;SDS011;22788;51.434;6.786;2022-11-20T09:06:45;12.53;;;9.57;;
36855;SDS011;22788;51.434;6.786;2022-11-20T09:09:12;15.43;;;9.50;;
36855;SDS011;22788;51.434;6.786;2022-11-20T09:11:38;12.37;;;8.80;;
36855;SDS011;22788;51.434;6.786;2022-11-20T09:14:04;11.83;;;9.20;;
36855;SDS011;22788;51.434;6.786;2022-11-20T09:16:31;14.30;;;9.10;;
36855;SDS011;22788;51.434;6.786;2022-11-20T09:18:57;14.70;;;9.53;;
36855;SDS011;22788;51.434;6.786;2022-11-20T09:21:23;14.20;;;9.57;;
36855;SDS011;22788;51.434;6.786;2022-11-20T09:23:49;11.73;;;8.90;;
36855;SDS011;22788;51.434;6.786;2022-11-20T09:26:15;13.53;;;9.70;;
36855;SDS011;22788;51.434;6.786;2022-11-20T09:28:41;14.33;;;9.43;;
36855;SDS011;22788;51.434;6.786;2022-11-20T09:31:07;13.33;;;9.73;;
36855;SDS011;22788;51.434;6.786;2022-11-20T09:33:36;14.40;;;9.40;;
36855;SDS011;22788;51.434;6.786;2022-11-20T09:36:02;11.97;;;8.73;;
36855;SDS011;22788;51.434;6.786;2022-11-20T09:38:29;14.13;;;8.40;;
36855;SDS011;22788;51.434;6.786;2022-11-20T09:40:56;13.40;;;9.63;;
36855;SDS011;22788;51.434;6.786;2022-11-20T09:43:29;13.40;;;8.93;;
36855;SDS011;22788;51.434;6.786;2022-11-20T09:46:04;13.93;;;9.13;;
36855;SDS011;22788;51.434;6.786;2022-11-20T09:48:39;12.47;;;9.30;;
36855;SDS011;22788;51.434;6.786;2022-11-20T09:51:16;14.23;;;8.53;;
36855;SDS011;22788;51.434;6.786;2022-11-20T09:53:52;14.77;;;8.40;;
36855;SDS011;22788;51.434;6.786;2022-11-20T09:56:27;13.03;;;8.80;;
36855;SDS011;22788;51.434;6.786;2022-11-20T09:58:54;13.03;;;8.57;;
36855;SDS011;22788;51.434;6.786;2022-11-20T10:01:23;12.80;;;9.87;;
36855;SDS011;22788;51.434;6.786;2022-11-20T10:03:56;11.90;;;8.37;;
36855;SDS011;22788;51.434;6.786;2022-11-20T10:06:28;13.03;;;8.73;;
36855;SDS011;22788;51.434;6.786;2022-11-20T10:08:59;13.83;;;9.10;;
36855;SDS011;22788;51.434;6.786;2022-11-20T10:11:42;12.07;;;8.37;;
36855;SDS011;22788;51.434;6.786;2022-11-20T10:14:16;12.07;;;8.17;;
36855;SDS011;22788;51.434;6.786;2022-11-20T10:16:53;13.70;;;8.73;;
36855;SDS011;22788;51.434;6.786;2022-11-20T10:19:30;12.93;;;8.47;;
36855;SDS011;22788;51.434;6.786;2022-11-20T10:22:09;11.80;;;8.80;;
36855;SDS011;22788;51.434;6.786;2022-11-20T10:24:45;12.90;;;8.27;;
36855;SDS011;22788;51.434;6.786;2022-11-20T10:30:34;12.97;;;7.80;;
36855;SDS011;22788;51.434;6.786;2022-11-20T10:33:06;12.97;;;8.47;;
36855;SDS011;22788;51.434;6.786;2022-11-20T10:35:40;12.37;;;8.60;;
36855;SDS011;22788;51.434;6.786;2022-11-20T10:38:12;12.80;;;9.07;;
36855;SDS011;22788;51.434;6.786;2022-11-20T10:40:46;12.60;;;8.47;;
36855;SDS011;22788;51.434;6.786;2022-11-20T10:43:17;12.33;;;8.80;;
36855;SDS011;22788;51.434;6.786;2022-11-20T10:45:52;14.67;;;9.43;;
36855;SDS011;22788;51.434;6.786;2022-11-20T10:48:22;13.13;;;8.97;;
36855;SDS011;22788;51.434;6.786;2022-11-20T10:51:10;12.77;;;8.10;;
36855;SDS011;22788;51.434;6.786;2022-11-20T10:53:54;12.47;;;8.77;;
36855;SDS011;22788;51.434;6.786;2022-11-20T10:56:25;14.57;;;9.00;;
36855;SDS011;22788;51.434;6.786;2022-11-20T10:59:04;11.93;;;8.87;;
36855;SDS011;22788;51.434;6.786;2022-11-20T11:01:51;11.63;;;8.70;;
36855;SDS011;22788;51.434;6.786;2022-11-20T11:04:21;10.87;;;8.23;;
36855;SDS011;22788;51.434;6.786;2022-11-20T11:06:58;12.87;;;8.33;;
36855;SDS011;22788;51.434;6.786;2022-11-20T11:09:32;12.77;;;8.20;;
36855;SDS011;22788;51.434;6.786;2022-11-20T11:12:01;10.53;;;7.30;;
36855;SDS011;22788;51.434;6.786;2022-11-20T11:14:30;11.47;;;7.90;;
36855;SDS011;22788;51.434;6.786;2022-11-20T11:17:17;11.97;;;8.07;;
36855;SDS011;22788;51.434;6.786;2022-11-20T11:22:44;14.37;;;8.43;;
36855;SDS011;22788;51.434;6.786;2022-11-20T11:25:18;11.77;;;8.37;;
36855;SDS011;22788;51.434;6.786;2022-11-20T11:27:47;11.90;;;7.80;;
36855;SDS011;22788;51.434;6.786;2022-11-20T11:30:14;10.17;;;7.70;;
36855;SDS011;22788;51.434;6.786;2022-11-20T11:32:42;12.10;;;8.37;;
36855;SDS011;22788;51.434;6.786;2022-11-20T11:35:18;12.03;;;7.83;;
36855;SDS011;22788;51.434;6.786;2022-11-20T11:37:48;10.27;;;8.00;;
36855;SDS011;22788;51.434;6.786;2022-11-20T11:40:15;10.57;;;7.23;;
36855;SDS011;22788;51.434;6.786;2022-11-20T11:42:42;11.73;;;8.40;;
36855;SDS011;22788;51.434;6.786;2022-11-20T11:45:11;10.07;;;7.47;;
36855;SDS011;22788;51.434;6.786;2022-11-20T11:47:43;10.70;;;7.83;;
36855;SDS011;22788;51.434;6.786;2022-11-20T11:50:15;12.87;;;7.77;;
36855;SDS011;22788;51.434;6.786;2022-11-20T11:52:43;11.70;;;7.73;;
36855;SDS011;22788;51.434;6.786;2022-11-20T11:55:17;11.93;;;7.43;;
36855;SDS011;22788;51.434;6.786;2022-11-20T11:57:52;11.47;;;7.37;;
36855;SDS011;22788;51.434;6.786;2022-11-20T12:00:25;9.47;;;7.13;;
36855;SDS011;22788;51.434;6.786;2022-11-20T12:02:57;14.27;;;8.73;;
36855;SDS011;22788;51.434;6.786;2022-11-20T12:05:35;11.40;;;7.57;;
36855;SDS011;22788;51.434;6.786;2022-11-20T12:08:09;11.03;;;7.50;;
36855;SDS011;22788;51.434;6.786;2022-11-20T12:10:44;12.20;;;8.17;;
36855;SDS011;22788;51.434;6.786;2022-11-20T12:13:21;11.47;;;7.47;;
36855;SDS011;22788;51.434;6.786;2022-11-20T12:15:57;10.63;;;7.27;;
36855;SDS011;22788;51.434;6.786;2022-11-20T12:18:24;11.77;;;7.77;;
36855;SDS011;22788;51.434;6.786;2022-11-20T12:20:53;12.90;;;7.93;;
36855;SDS011;22788;51.434;6.786;2022-11-20T12:23:29;11.30;;;7.53;;
36855;SDS011;22788;51.434;6.786;2022-11-20T12:26:02;13.40;;;7.63;;
36855;SDS011;22788;51.434;6.786;2022-11-20T12:28:40;12.07;;;7.20;;
36855;SDS011;22788;51.434;6.786;2022-11-20T12:31:23;11.67;;;7.80;;
36855;SDS011;22788;51.434;6.786;2022-11-20T12:34:20;10.30;;;6.90;;
36855;SDS011;22788;51.434;6.786;2022-11-20T12:36:58;13.53;;;8.00;;
36855;SDS011;22788;51.434;6.786;2022-11-20T12:39:39;11.50;;;7.97;;
36855;SDS011;22788;51.434;6.786;2022-11-20T12:48:20;10.13;;;7.40;;
36855;SDS011;22788;51.434;6.786;2022-11-20T12:51:05;10.43;;;6.97;;
36855;SDS011;22788;51.434;6.786;2022-11-20T12:53:45;11.67;;;7.17;;
36855;SDS011;22788;51.434;6.786;2022-11-20T12:56:27;11.73;;;7.67;;
36855;SDS011;22788;51.434;6.786;2022-11-20T12:59:07;21.80;;;10.47;;
36855;SDS011;22788;51.434;6.786;2022-11-20T13:01:54;19.33;;;9.47;;
36855;SDS011;22788;51.434;6.786;2022-11-20T13:04:34;15.37;;;9.13;;
36855;SDS011;22788;51.434;6.786;2022-11-20T13:07:15;16.40;;;9.23;;
36855;SDS011;22788;51.434;6.786;2022-11-20T13:09:43;13.63;;;8.93;;
36855;SDS011;22788;51.434;6.786;2022-11-20T13:12:13;17.63;;;9.60;;
36855;SDS011;22788;51.434;6.786;2022-11-20T13:14:45;17.10;;;9.03;;
36855;SDS011;22788;51.434;6.786;2022-11-20T13:17:19;16.40;;;9.07;;
36855;SDS011;22788;51.434;6.786;2022-11-20T13:19:50;15.87;;;8.77;;
36855;SDS011;22788;51.434;6.786;2022-11-20T13:22:24;13.53;;;8.63;;
36855;SDS011;22788;51.434;6.786;2022-11-20T13:24:50;13.77;;;8.93;;
36855;SDS011;22788;51.434;6.786;2022-11-20T13:27:19;14.73;;;9.00;;
36855;SDS011;22788;51.434;6.786;2022-11-20T13:29:47;15.23;;;8.93;;
36855;SDS011;22788;51.434;6.786;2022-11-20T13:32:25;14.57;;;8.53;;
36855;SDS011;22788;51.434;6.786;2022-11-20T13:34:53;16.67;;;8.50;;
36855;SDS011;22788;51.434;6.786;2022-11-20T13:37:24;13.03;;;8.23;;
36855;SDS011;22788;51.434;6.786;2022-11-20T13:40:04;13.60;;;8.50;;
36855;SDS011;22788;51.434;6.786;2022-11-20T13:42:54;15.37;;;8.37;;
36855;SDS011;22788;51.434;6.786;2022-11-20T13:45:26;14.47;;;7.87;;
36855;SDS011;22788;51.434;6.786;2022-11-20T13:47:54;15.93;;;8.57;;
36855;SDS011;22788;51.434;6.786;2022-11-20T13:50:21;10.87;;;7.83;;
36855;SDS011;22788;51.434;6.786;2022-11-20T13:53:04;13.33;;;8.57;;
36855;SDS011;22788;51.434;6.786;2022-11-20T13:55:38;13.10;;;7.67;;
36855;SDS011;22788;51.434;6.786;2022-11-20T13:58:25;13.90;;;8.37;;
36855;SDS011;22788;51.434;6.786;2022-11-20T14:01:05;15.63;;;8.20;;
36855;SDS011;22788;51.434;6.786;2022-11-20T14:03:35;14.97;;;8.57;;
36855;SDS011;22788;51.434;6.786;2022-11-20T14:06:02;13.27;;;8.00;;
36855;SDS011;22788;51.434;6.786;2022-11-20T14:08:31;14.60;;;8.10;;
36855;SDS011;22788;51.434;6.786;2022-11-20T14:11:02;16.93;;;7.87;;
36855;SDS011;22788;51.434;6.786;2022-11-20T14:13:31;12.10;;;7.33;;
36855;SDS011;22788;51.434;6.786;2022-11-20T14:15:57;12.47;;;7.93;;
36855;SDS011;22788;51.434;6.786;2022-11-20T14:18:24;13.47;;;7.67;;
36855;SDS011;22788;51.434;6.786;2022-11-20T14:20:51;14.47;;;9.10;;
36855;SDS011;22788;51.434;6.786;2022-11-20T14:23:23;14.13;;;8.77;;
36855;SDS011;22788;51.434;6.786;2022-11-20T14:25:50;14.67;;;8.53;;
36855;SDS011;22788;51.434;6.786;2022-11-20T14:28:19;16.37;;;8.90;;
36855;SDS011;22788;51.434;6.786;2022-11-20T14:30:51;14.77;;;9.13;;
36855;SDS011;22788;51.434;6.786;2022-11-20T14:33:18;12.93;;;8.47;;
36855;SDS011;22788;51.434;6.786;2022-11-20T14:35:46;16.00;;;9.33;;
36855;SDS011;22788;51.434;6.786;2022-11-20T14:38:14;15.43;;;9.23;;
36855;SDS011;22788;51.434;6.786;2022-11-20T14:40:42;14.70;;;8.77;;
36855;SDS011;22788;51.434;6.786;2022-11-20T14:43:16;12.13;;;8.53;;
36855;SDS011;22788;51.434;6.786;2022-11-20T14:45:44;15.33;;;9.50;;
36855;SDS011;22788;51.434;6.786;2022-11-20T14:48:15;13.83;;;9.30;;
36855;SDS011;22788;51.434;6.786;2022-11-20T14:50:42;12.10;;;9.03;;
36855;SDS011;22788;51.434;6.786;2022-11-20T14:53:08;14.63;;;9.40;;